PWSweather.com
Personal Weather Stations
Station Observations

LasarteES

Lat: 43.268748, Lon: -2.019531

Elevation: 55

Station Type: DAVIS VP2

http://www.meteolasarte.com/

Latest ConditionsUpdated 7:02:04 AM GMT+01:01 Thursday, Oct 18, 2018
Currently Today's Max Today's Min Today's Average
Temperature 60.6°F15.9°C 61.7°F16.5°C 60.1°F15.6°C 60.9°F16.1°C
Dew Point 58.3°F14.6°C 58.8°F14.9°C 57.4°F14.1°C 58.3°F14.6°C
Winds Calm Calm Calm -Calm - - Calm Calm
Wind Gusts -- -- - -
Humidity 92% 93% 90% 91%
Pressure 29.98 in1015.2 mb 29.98 in1015.2 mb 29.96 in1014.6 mb -
Hour Temp Dew Point Humidity Winds Wind Gusts Pressure Precip Precip Rate Daily Precip Total
07:02 AM 60.6°F15.9°C 58.3°F14.6°C 92% Calm Calm -- 29.98 in1015.2 mb - 0.00 in0.0 mm 0.00 in0.0 mm
06:47 AM 60.4°F15.8°C 58.1°F14.5°C 92% Calm Calm -- 29.97 in1014.9 mb - 0.00 in0.0 mm 0.00 in0.0 mm
06:32 AM 61.0°F16.1°C 58.6°F14.8°C 92% Calm Calm -- 29.97 in1014.9 mb - 0.00 in0.0 mm 0.00 in0.0 mm
06:17 AM 60.6°F15.9°C 58.6°F14.8°C 93% Calm Calm -- 29.97 in1014.9 mb - 0.00 in0.0 mm 0.00 in0.0 mm
06:02 AM 60.3°F15.7°C 57.9°F14.4°C 92% Calm Calm -- 29.97 in1014.9 mb - 0.00 in0.0 mm 0.00 in0.0 mm
05:47 AM 60.1°F15.6°C 57.7°F14.3°C 92% Calm Calm -- 29.97 in1014.9 mb - 0.00 in0.0 mm 0.00 in0.0 mm
05:32 AM 60.1°F15.6°C 57.7°F14.3°C 92% Calm Calm -- 29.97 in1014.9 mb - 0.00 in0.0 mm 0.00 in0.0 mm
05:17 AM 60.3°F15.7°C 57.9°F14.4°C 92% Calm Calm -- 29.97 in1014.9 mb - 0.00 in0.0 mm 0.00 in0.0 mm
05:02 AM 60.1°F15.6°C 57.4°F14.1°C 91% Calm Calm -- 29.96 in1014.6 mb - 0.00 in0.0 mm 0.00 in0.0 mm
04:47 AM 60.3°F15.7°C 57.6°F14.2°C 91% Calm Calm -- 29.96 in1014.6 mb - 0.00 in0.0 mm 0.00 in0.0 mm
04:32 AM 60.4°F15.8°C 57.7°F14.3°C 91% Calm Calm -- 29.96 in1014.6 mb - 0.00 in0.0 mm 0.00 in0.0 mm
04:17 AM 60.6°F15.9°C 57.9°F14.4°C 91% Calm Calm -- 29.96 in1014.6 mb - 0.00 in0.0 mm 0.00 in0.0 mm
04:02 AM 60.4°F15.8°C 57.7°F14.3°C 91% Calm Calm -- 29.96 in1014.6 mb - 0.00 in0.0 mm 0.00 in0.0 mm
03:47 AM 61.0°F16.1°C 58.1°F14.5°C 90% Calm Calm -- 29.96 in1014.6 mb - 0.00 in0.0 mm 0.00 in0.0 mm
03:32 AM 61.3°F16.3°C 58.6°F14.8°C 91% Calm Calm -- 29.96 in1014.6 mb - 0.00 in0.0 mm 0.00 in0.0 mm
03:17 AM 61.5°F16.4°C 58.8°F14.9°C 91% Calm Calm -- 29.96 in1014.6 mb - 0.00 in0.0 mm 0.00 in0.0 mm
03:02 AM 61.3°F16.3°C 58.6°F14.8°C 91% Calm Calm -- 29.97 in1014.9 mb - 0.00 in0.0 mm 0.00 in0.0 mm
02:47 AM 61.2°F16.2°C 58.3°F14.6°C 90% Calm Calm -- 29.97 in1014.9 mb - 0.00 in0.0 mm 0.00 in0.0 mm
02:32 AM 61.5°F16.4°C 58.6°F14.8°C 90% Calm Calm -- 29.97 in1014.9 mb - 0.00 in0.0 mm 0.00 in0.0 mm
02:17 AM 61.5°F16.4°C 58.6°F14.8°C 90% Calm Calm -- 29.98 in1015.2 mb - 0.00 in0.0 mm 0.00 in0.0 mm
02:02 AM 61.7°F16.5°C 58.8°F14.9°C 90% Calm Calm -- 29.98 in1015.2 mb - 0.00 in0.0 mm 0.00 in0.0 mm
01:47 AM 61.5°F16.4°C 58.6°F14.8°C 90% Calm Calm -- 29.98 in1015.2 mb - 0.00 in0.0 mm 0.00 in0.0 mm
01:32 AM 61.5°F16.4°C 58.8°F14.9°C 91% Calm Calm -- 29.98 in1015.2 mb - 0.00 in0.0 mm 0.00 in0.0 mm
01:17 AM 61.3°F16.3°C 58.6°F14.8°C 91% Calm Calm -- 29.98 in1015.2 mb - 0.00 in0.0 mm 0.00 in0.0 mm
01:02 AM 61.3°F16.3°C 58.5°F14.7°C 90% Calm Calm -- 29.98 in1015.2 mb - 0.00 in0.0 mm 0.00 in0.0 mm
12:47 AM 61.3°F16.3°C 58.6°F14.8°C 91% Calm Calm -- 29.98 in1015.2 mb - 0.00 in0.0 mm 0.00 in0.0 mm
12:32 AM 61.3°F16.3°C 58.6°F14.8°C 91% Calm Calm -- 29.98 in1015.2 mb - 0.00 in0.0 mm 0.00 in0.0 mm
12:17 AM 61.2°F16.2°C 58.3°F14.6°C 90% Calm Calm -- 29.98 in1015.2 mb - 0.00 in0.0 mm 0.00 in0.0 mm
12:02 AM 61.2°F16.2°C 58.3°F14.6°C 90% Calm Calm -- 29.98 in1015.2 mb - 0.00 in0.0 mm 0.00 in0.0 mm